Time;durP1;ratioP1;P1;durP2;ratioP2;P2;SDS_P1;SDS_P2;PMS_P1;PMS_P2;Temp;Humidity;BMP_temperature;BMP_pressure;BME280_temperature;BME280_humidity;BME280_pressure;Samples;Min_cycle;Max_cycle;Signal;HPM_P1;HPM_P2
2022/03/02 00:00:13;;;;;;;4.93;1.70;;;;;;;0.01;66.13;102026.88;5049356;28;20446;-79
2022/03/02 00:02:39;;;;;;;3.08;1.63;;;;;;;-0.06;66.65;102015.09;5058441;28;20051;-79
2022/03/02 00:05:05;;;;;;;4.05;2.00;;;;;;;-0.06;67.02;102012.41;5049977;28;20037;-80
2022/03/02 00:07:31;;;;;;;4.85;2.17;;;;;;;-0.11;67.14;102010.25;5046760;28;20048;-79
2022/03/02 00:09:57;;;;;;;3.10;1.60;;;;;;;-0.13;66.45;102009.59;5048374;28;20072;-79
2022/03/02 00:12:23;;;;;;;4.35;1.88;;;;;;;-0.11;66.66;102001.31;5037728;28;20087;-79
2022/03/02 00:14:48;;;;;;;4.78;1.95;;;;;;;-0.11;66.76;102002.16;5030611;28;20454;-79
2022/03/02 00:17:14;;;;;;;2.63;1.88;;;;;;;-0.09;67.43;101997.41;5049210;28;20042;-79
2022/03/02 00:19:40;;;;;;;3.75;1.65;;;;;;;-0.01;66.93;101993.81;5047106;28;20057;-79
2022/03/02 00:22:06;;;;;;;4.63;1.90;;;;;;;-0.03;67.65;101994.00;5048357;28;20056;-79
2022/03/02 00:24:32;;;;;;;4.88;2.85;;;;;;;-0.01;67.36;101993.81;5049231;28;20033;-79
2022/03/02 00:26:58;;;;;;;5.13;2.35;;;;;;;0.01;67.49;101989.09;5064213;28;20045;-79
2022/03/02 00:29:25;;;;;;;3.97;2.15;;;;;;;-0.01;68.13;101996.50;5049762;28;20056;-80
2022/03/02 00:31:50;;;;;;;3.70;2.05;;;;;;;0.02;68.07;101990.78;5043911;28;20041;-80
2022/03/02 00:34:16;;;;;;;2.65;1.80;;;;;;;0.07;67.75;101991.06;5072131;28;20399;-80
2022/03/02 00:36:42;;;;;;;3.78;2.13;;;;;;;0.05;68.82;101990.41;5054407;28;20037;-79
2022/03/02 00:39:07;;;;;;;3.38;2.00;;;;;;;0.07;68.00;101982.13;5047514;28;20491;-79
2022/03/02 00:41:33;;;;;;;7.13;2.42;;;;;;;0.05;68.46;101989.59;5047200;28;20060;-80
2022/03/02 00:43:59;;;;;;;9.35;2.60;;;;;;;-0.05;68.77;101979.84;5049194;28;20521;-79
2022/03/02 00:46:29;;;;;;;4.45;2.00;;;;;;;-0.07;68.71;101978.34;5048903;28;20514;-80
2022/03/02 00:48:59;;;;;;;3.65;2.00;;;;;;;-0.10;69.55;101973.31;5048639;28;20033;-80
2022/03/02 00:51:26;;;;;;;5.70;2.25;;;;;;;-0.15;69.70;101971.16;5046995;28;20037;-79
2022/03/02 00:53:53;;;;;;;4.95;2.25;;;;;;;-0.10;69.06;101973.31;5048222;28;20507;-80
2022/03/02 00:56:19;;;;;;;5.07;2.33;;;;;;;-0.14;70.00;101966.59;5048253;28;20086;-80
2022/03/02 00:58:45;;;;;;;4.00;2.50;;;;;;;-0.21;69.83;101963.75;5048243;28;20455;-80
2022/03/02 01:01:10;;;;;;;4.07;2.30;;;;;;;-0.25;70.61;101969.69;5046311;28;20696;-79
2022/03/02 01:03:36;;;;;;;5.47;2.45;;;;;;;-0.31;70.31;101955.91;5045700;28;20094;-80
2022/03/02 01:06:03;;;;;;;7.78;3.20;;;;;;;-0.34;70.14;101971.59;5049041;28;20072;-79
2022/03/02 01:08:29;;;;;;;3.15;1.77;;;;;;;-0.38;70.16;101960.31;5048369;28;20594;-79
2022/03/02 01:10:55;;;;;;;3.90;1.67;;;;;;;-0.41;69.64;101967.91;5046029;28;20132;-79
2022/03/02 01:13:21;;;;;;;5.13;2.38;;;;;;;-0.37;70.30;101964.69;5047516;28;20071;-80
2022/03/02 01:15:46;;;;;;;4.05;2.00;;;;;;;-0.42;69.73;101961.69;5048216;28;20044;-80
2022/03/02 01:18:13;;;;;;;5.63;2.10;;;;;;;-0.49;69.86;101963.41;5046106;28;20036;-79
2022/03/02 01:20:38;;;;;;;2.85;1.77;;;;;;;-0.48;70.26;101961.56;5048397;28;20128;-78
2022/03/02 01:23:04;;;;;;;5.05;2.10;;;;;;;-0.55;70.72;101957.88;5045398;28;20074;-79
2022/03/02 01:25:30;;;;;;;3.22;2.05;;;;;;;-0.49;70.66;101957.19;5048495;28;20087;-80
2022/03/02 01:27:55;;;;;;;4.53;2.15;;;;;;;-0.51;70.23;101951.13;5047726;28;21903;-80
2022/03/02 01:30:21;;;;;;;3.58;2.05;;;;;;;-0.55;70.87;101956.03;5048149;28;20041;-80
2022/03/02 01:32:47;;;;;;;5.13;2.25;;;;;;;-0.61;70.96;101944.09;5048465;28;20032;-80
2022/03/02 01:35:13;;;;;;;5.30;1.90;;;;;;;-0.61;70.50;101937.88;5048193;28;20037;-80
2022/03/02 01:37:38;;;;;;;5.07;2.10;;;;;;;-0.61;70.47;101940.56;5048122;28;20087;-78
2022/03/02 01:40:09;;;;;;;6.68;2.33;;;;;;;-0.65;70.34;101941.94;5046545;28;20564;-79
2022/03/02 01:42:38;;;;;;;4.47;2.00;;;;;;;-0.71;70.32;101938.06;5048211;28;20087;-78
2022/03/02 01:45:05;;;;;;;3.42;2.13;;;;;;;-0.75;70.75;101933.22;5046067;28;20033;-79
2022/03/02 01:47:31;;;;;;;3.95;2.00;;;;;;;-0.75;71.03;101930.50;5048398;28;20047;-79
2022/03/02 01:49:56;;;;;;;4.32;2.00;;;;;;;-0.78;71.72;101928.16;5046909;28;20037;-79
2022/03/02 01:52:22;;;;;;;4.97;2.28;;;;;;;-0.78;71.93;101926.31;5047575;28;20029;-79
2022/03/02 01:54:48;;;;;;;4.10;2.58;;;;;;;-0.74;71.67;101924.09;5045732;28;20028;-79
2022/03/02 01:57:14;;;;;;;4.22;2.20;;;;;;;-0.70;71.31;101914.63;5047851;28;20148;-78
2022/03/02 01:59:39;;;;;;;6.07;2.60;;;;;;;-0.76;71.31;101913.50;5063491;28;20044;-78
2022/03/02 02:02:05;;;;;;;3.45;2.17;;;;;;;-0.81;71.83;101915.06;5047984;28;20121;-80
2022/03/02 02:04:31;;;;;;;7.00;2.58;;;;;;;-0.81;71.67;101912.34;5047852;28;20037;-78
2022/03/02 02:06:58;;;;;;;4.15;2.30;;;;;;;-0.83;72.13;101903.63;5046095;28;20506;-78
2022/03/02 02:09:23;;;;;;;5.15;2.15;;;;;;;-0.84;72.53;101905.47;5047529;28;20065;-78
2022/03/02 02:11:49;;;;;;;5.10;2.30;;;;;;;-0.83;72.13;101909.00;5030035;28;20039;-78
2022/03/02 02:14:15;;;;;;;4.50;2.33;;;;;;;-0.92;72.37;101898.25;5046613;28;20036;-79
2022/03/02 02:16:40;;;;;;;6.25;2.75;;;;;;;-0.94;72.16;101902.97;5047381;28;20052;-78
2022/03/02 02:19:06;;;;;;;6.47;2.58;;;;;;;-0.97;72.43;101903.31;5045419;28;20067;-78
2022/03/02 02:21:32;;;;;;;5.25;2.95;;;;;;;-0.92;72.62;101900.94;5045883;28;20726;-78
2022/03/02 02:23:58;;;;;;;3.35;2.60;;;;;;;-0.98;72.19;101895.41;5045423;28;20052;-77
2022/03/02 02:26:25;;;;;;;5.10;2.67;;;;;;;-1.04;72.73;101888.00;5045628;28;20056;-79
2022/03/02 02:28:51;;;;;;;4.75;2.83;;;;;;;-1.07;72.86;101894.59;5046061;28;20083;-79
2022/03/02 02:31:17;;;;;;;5.47;2.10;;;;;;;-1.02;72.44;101886.84;5045199;28;20041;-79
2022/03/02 02:33:43;;;;;;;4.55;2.83;;;;;;;-1.05;72.64;101887.19;5045640;28;20127;-79
2022/03/02 02:36:11;;;;;;;5.63;2.75;;;;;;;-1.08;72.82;101875.91;5044887;28;20037;-79
2022/03/02 02:38:36;;;;;;;5.57;2.60;;;;;;;-1.12;73.70;101877.28;5046021;28;20498;-79
2022/03/02 02:41:02;;;;;;;7.82;2.80;;;;;;;-1.17;72.97;101875.13;5047420;28;20095;-79
2022/03/02 02:43:28;;;;;;;5.40;2.33;;;;;;;-1.16;73.58;101862.50;5047343;28;20127;-79
2022/03/02 02:45:54;;;;;;;6.60;2.78;;;;;;;-1.24;74.09;101860.66;5047153;28;20079;-79
2022/03/02 02:48:19;;;;;;;4.82;2.72;;;;;;;-1.22;73.74;101858.63;5046664;28;20075;-79
2022/03/02 02:50:45;;;;;;;4.97;2.50;;;;;;;-1.26;73.71;101852.75;5046756;28;20037;-79
2022/03/02 02:53:12;;;;;;;4.78;2.47;;;;;;;-1.27;74.28;101842.16;5047086;28;20512;-79
2022/03/02 02:55:39;;;;;;;5.95;2.75;;;;;;;-1.31;74.39;101849.75;5048439;28;20047;-79
2022/03/02 02:58:06;;;;;;;4.53;2.50;;;;;;;-1.29;74.59;101846.88;5045664;28;20064;-79
2022/03/02 03:00:35;;;;;;;9.18;2.83;;;;;;;-1.36;75.18;101835.13;5044231;28;20075;-79
2022/03/02 03:03:01;;;;;;;5.95;2.90;;;;;;;-1.36;75.15;101833.28;5041501;28;20099;-79
2022/03/02 03:05:30;;;;;;;7.75;3.70;;;;;;;-1.39;74.82;101841.72;5045000;28;20044;-80
2022/03/02 03:07:57;;;;;;;4.17;2.83;;;;;;;-1.41;75.15;101829.41;5047313;28;20033;-80
2022/03/02 03:10:24;;;;;;;5.97;2.70;;;;;;;-1.43;75.35;101826.06;5006300;28;20294;-80
2022/03/02 03:12:49;;;;;;;6.95;3.25;;;;;;;-1.48;75.73;101823.06;5056965;28;20055;-80
2022/03/02 03:15:17;;;;;;;4.43;2.92;;;;;;;-1.41;76.14;101813.25;5046178;28;20079;-80
2022/03/02 03:17:44;;;;;;;4.57;2.90;;;;;;;-1.41;76.14;101816.78;5047395;28;20041;-78
2022/03/02 03:20:11;;;;;;;5.85;3.03;;;;;;;-1.39;75.65;101817.50;5049867;28;20474;-79
2022/03/02 03:22:37;;;;;;;8.27;2.90;;;;;;;-1.40;75.87;101810.38;5048592;28;20049;-79
2022/03/02 03:25:04;;;;;;;8.15;2.90;;;;;;;-1.34;76.69;101816.94;5049486;28;20040;-80
2022/03/02 03:27:29;;;;;;;7.30;4.05;;;;;;;-1.32;76.11;101810.38;5050606;28;20083;-80
2022/03/02 03:29:55;;;;;;;5.38;3.33;;;;;;;-1.35;76.34;101804.50;5049754;28;20033;-79
2022/03/02 03:32:21;;;;;;;5.45;3.08;;;;;;;-1.40;76.33;101801.47;5050010;28;20041;-80
2022/03/02 03:34:46;;;;;;;6.65;3.05;;;;;;;-1.40;76.20;101801.47;5050359;28;20037;-80
2022/03/02 03:37:12;;;;;;;6.13;3.13;;;;;;;-1.48;76.91;101801.53;5051251;28;20037;-79
2022/03/02 03:39:38;;;;;;;8.57;3.15;;;;;;;-1.50;77.31;101808.94;5048078;28;20083;-79
2022/03/02 03:42:04;;;;;;;5.25;2.67;;;;;;;-1.48;77.39;101801.53;5049862;28;20119;-80
2022/03/02 03:44:30;;;;;;;6.00;3.30;;;;;;;-1.44;76.75;101801.00;5044666;28;20135;-79
2022/03/02 03:46:55;;;;;;;5.70;3.00;;;;;;;-1.38;76.51;101799.47;5051003;28;20194;-78
2022/03/02 03:49:21;;;;;;;5.78;2.95;;;;;;;-1.43;77.48;101802.66;5031680;28;20037;-79
2022/03/02 03:51:47;;;;;;;7.93;3.05;;;;;;;-1.51;77.14;101800.03;5046292;28;20041;-78
2022/03/02 03:54:12;;;;;;;7.28;3.58;;;;;;;-1.57;77.36;101800.69;5050626;28;20950;-80
2022/03/02 03:56:38;;;;;;;7.68;2.95;;;;;;;-1.57;77.36;101795.31;5049884;28;20543;-79
2022/03/02 03:59:04;;;;;;;7.60;3.05;;;;;;;-1.54;77.32;101790.44;5049364;28;20247;-80
2022/03/02 04:01:30;;;;;;;9.52;3.47;;;;;;;-1.53;77.03;101781.34;5050201;28;20040;-79
2022/03/02 04:03:56;;;;;;;6.28;2.88;;;;;;;-1.56;77.46;101776.31;5051570;28;20048;-78
2022/03/02 04:06:22;;;;;;;6.57;3.88;;;;;;;-1.57;77.57;101777.31;5048636;28;20040;-80
2022/03/02 04:08:47;;;;;;;6.22;3.05;;;;;;;-1.61;77.95;101772.47;5050392;28;20060;-80
2022/03/02 04:11:13;;;;;;;4.13;2.47;;;;;;;-1.73;77.19;101772.00;5047580;28;20120;-80
2022/03/02 04:13:39;;;;;;;4.75;2.75;;;;;;;-1.73;77.98;101777.41;5048369;28;20491;-79
2022/03/02 04:16:05;;;;;;;5.65;2.80;;;;;;;-1.77;77.67;101776.03;5049555;28;20045;-78
2022/03/02 04:18:34;;;;;;;5.70;2.80;;;;;;;-1.79;77.78;101767.31;5049323;28;20068;-78
2022/03/02 04:21:00;;;;;;;5.68;3.65;;;;;;;-1.84;77.68;101770.50;5049481;28;20045;-78
2022/03/02 04:23:26;;;;;;;6.43;2.88;;;;;;;-1.82;77.98;101767.66;5048300;28;20091;-77
2022/03/02 04:25:52;;;;;;;4.57;3.03;;;;;;;-1.76;78.16;101763.41;5047555;28;20086;-78
2022/03/02 04:28:18;;;;;;;6.50;3.45;;;;;;;-1.75;78.32;101762.41;5046129;28;20422;-79
2022/03/02 04:30:44;;;;;;;6.25;3.22;;;;;;;-1.78;78.23;101758.22;5044348;28;20724;-77
2022/03/02 04:33:10;;;;;;;7.50;3.22;;;;;;;-1.80;77.67;101760.25;5048149;28;20049;-78
2022/03/02 04:35:36;;;;;;;7.93;3.67;;;;;;;-1.78;77.91;101752.84;5048184;28;20507;-79
2022/03/02 04:38:02;;;;;;;5.53;3.25;;;;;;;-1.78;77.76;101738.53;5047289;28;20032;-77
2022/03/02 04:40:27;;;;;;;6.07;3.22;;;;;;;-1.90;77.89;101736.25;5047895;28;20034;-77
2022/03/02 04:42:56;;;;;;;6.43;3.72;;;;;;;-1.95;77.74;101741.28;5031363;28;20051;-79
2022/03/02 04:45:27;;;;;;;7.93;3.60;;;;;;;-1.94;78.39;101742.97;5049280;28;20063;-79
2022/03/02 04:47:54;;;;;;;9.35;3.33;;;;;;;-1.93;78.09;101741.94;5048404;28;20041;-77
2022/03/02 04:50:26;;;;;;;8.00;3.60;;;;;;;-1.93;78.17;101746.47;5038980;28;20039;-77
2022/03/02 04:52:52;;;;;;;7.65;3.70;;;;;;;-1.89;78.21;101745.16;5048521;28;20048;-79
2022/03/02 04:55:19;;;;;;;5.80;3.20;;;;;;;-1.77;78.85;101745.59;5049099;28;20043;-78
2022/03/02 04:57:47;;;;;;;6.13;3.10;;;;;;;-1.71;78.37;101759.22;5048662;28;20064;-78
2022/03/02 05:00:13;;;;;;;7.85;3.05;;;;;;;-1.76;78.16;101749.97;5043685;28;20033;-78
2022/03/02 05:02:41;;;;;;;6.28;3.47;;;;;;;-1.76;78.04;101745.44;5048581;28;20503;-79
2022/03/02 05:05:14;;;;;;;4.15;3.03;;;;;;;-1.77;77.64;101743.75;5048150;28;20041;-79
2022/03/02 05:07:41;;;;;;;6.97;3.10;;;;;;;-1.73;77.91;101753.19;5047671;28;20041;-77
2022/03/02 05:10:08;;;;;;;7.05;3.00;;;;;;;-1.65;77.40;101749.59;5046741;28;20120;-79
2022/03/02 05:12:34;;;;;;;5.45;2.83;;;;;;;-1.46;76.02;101746.50;5047900;28;20139;-79
2022/03/02 05:15:02;;;;;;;5.88;3.08;;;;;;;-1.26;76.00;101739.66;5049343;28;20069;-79
2022/03/02 05:17:28;;;;;;;6.13;3.38;;;;;;;-1.02;75.77;101744.09;5047663;28;20451;-79
2022/03/02 05:19:54;;;;;;;8.90;3.25;;;;;;;-0.81;74.52;101737.19;5046475;28;20037;-79
2022/03/02 05:22:19;;;;;;;6.88;3.20;;;;;;;-0.85;74.30;101736.72;5048514;28;20053;-79
2022/03/02 05:24:45;;;;;;;5.22;2.55;;;;;;;-0.69;74.08;101735.78;5049485;28;20037;-78
2022/03/02 05:27:11;;;;;;;6.35;2.80;;;;;;;-0.75;72.91;101745.38;5049969;28;20052;-79
2022/03/02 05:29:42;;;;;;;5.93;2.95;;;;;;;-0.48;73.12;101744.00;5049325;28;20032;-79
2022/03/02 05:32:08;;;;;;;6.00;2.60;;;;;;;-0.14;72.09;101734.59;5045710;28;20613;-78
2022/03/02 05:34:33;;;;;;;6.45;2.85;;;;;;;-0.03;71.97;101731.44;5069901;28;20141;-77
2022/03/02 05:36:59;;;;;;;7.25;2.55;;;;;;;-0.06;70.68;101731.81;5062581;28;20511;-77
2022/03/02 05:39:25;;;;;;;6.45;2.88;;;;;;;0.17;70.64;101737.94;5049749;28;20045;-77
2022/03/02 05:41:51;;;;;;;7.75;3.28;;;;;;;0.35;69.84;101734.03;5048901;28;20482;-78
2022/03/02 05:44:18;;;;;;;4.70;2.90;;;;;;;0.80;69.67;101744.59;5050425;28;20511;-76
2022/03/02 05:46:44;;;;;;;4.75;2.95;;;;;;;1.10;68.60;101742.66;5051270;28;20044;-77
2022/03/02 05:49:10;;;;;;;6.78;2.92;;;;;;;1.57;67.73;101743.13;5049929;28;20063;-77
2022/03/02 05:51:36;;;;;;;4.55;2.97;;;;;;;1.68;66.06;101739.84;5050439;28;20215;-76
2022/03/02 05:54:04;;;;;;;6.25;3.03;;;;;;;1.63;65.92;101735.03;5049608;28;20388;-76
2022/03/02 05:56:30;;;;;;;5.57;3.35;;;;;;;1.52;65.01;101743.69;5049803;28;20530;-77
2022/03/02 05:58:56;;;;;;;6.53;3.33;;;;;;;1.70;64.92;101733.22;5048111;28;20148;-76
2022/03/02 06:01:22;;;;;;;7.15;3.42;;;;;;;1.54;64.24;101735.38;5031125;28;20061;-76
2022/03/02 06:03:49;;;;;;;6.10;2.97;;;;;;;1.40;65.05;101729.88;5031099;28;20068;-77
2022/03/02 06:06:15;;;;;;;7.32;3.55;;;;;;;1.29;64.89;101722.25;5029967;28;20042;-77
2022/03/02 06:08:41;;;;;;;7.10;2.85;;;;;;;1.16;65.48;101727.53;5013538;28;20041;-76
2022/03/02 06:11:08;;;;;;;6.15;3.08;;;;;;;0.87;66.12;101726.63;5031258;28;20038;-77
2022/03/02 06:13:34;;;;;;;8.55;3.42;;;;;;;0.80;65.87;101731.09;5032486;28;20419;-77
2022/03/02 06:16:00;;;;;;;5.93;3.33;;;;;;;0.76;66.63;101732.50;5056919;28;20040;-77
2022/03/02 06:18:26;;;;;;;5.97;3.13;;;;;;;0.69;67.20;101742.38;5052358;28;20037;-77
2022/03/02 06:20:54;;;;;;;7.47;3.67;;;;;;;0.68;67.10;101732.59;5049904;28;20048;-77
2022/03/02 06:23:20;;;;;;;5.70;2.83;;;;;;;0.71;67.18;101726.84;5049811;28;20080;-77
2022/03/02 06:25:46;;;;;;;5.05;3.00;;;;;;;0.66;67.34;101729.25;5049845;28;20040;-75
2022/03/02 06:28:12;;;;;;;5.50;3.13;;;;;;;0.60;67.46;101738.97;5050461;28;20060;-77
2022/03/02 06:30:38;;;;;;;4.95;2.75;;;;;;;0.67;67.48;101743.59;5050473;28;20507;-77
2022/03/02 06:33:03;;;;;;;6.15;3.17;;;;;;;0.64;67.97;101739.41;5050952;28;20051;-77
2022/03/02 06:35:29;;;;;;;5.90;3.05;;;;;;;0.75;67.62;101733.53;5050718;28;20094;-76
2022/03/02 06:37:55;;;;;;;6.68;3.47;;;;;;;0.68;67.11;101720.97;5050832;28;20045;-78
2022/03/02 06:40:21;;;;;;;8.75;3.70;;;;;;;0.65;67.20;101724.03;5050677;28;20049;-78
2022/03/02 06:43:02;;;;;;;6.88;3.17;;;;;;;0.55;67.21;101729.75;5049325;28;20048;-77
2022/03/02 06:45:46;;;;;;;6.97;3.47;;;;;;;0.57;67.76;101722.31;5032085;28;20056;-77
2022/03/02 06:48:17;;;;;;;6.45;2.85;;;;;;;0.56;67.95;101717.94;5035223;28;20041;-77
2022/03/02 06:50:44;;;;;;;7.03;3.40;;;;;;;0.55;68.76;101716.25;5050686;28;20384;-77
2022/03/02 06:53:12;;;;;;;7.78;4.10;;;;;;;0.89;67.85;101723.72;5052900;28;20119;-78
2022/03/02 06:55:40;;;;;;;6.93;3.57;;;;;;;1.17;67.45;101723.78;5054766;28;20072;-78
2022/03/02 06:58:10;;;;;;;7.82;3.63;;;;;;;1.08;66.51;101731.19;5054853;28;20041;-76
2022/03/02 07:00:36;;;;;;;5.95;3.53;;;;;;;0.96;66.84;101729.19;5054561;28;20049;-77
2022/03/02 07:03:05;;;;;;;7.60;4.15;;;;;;;1.10;66.59;101718.34;5049611;28;20365;-77
2022/03/02 07:05:31;;;;;;;8.30;3.90;;;;;;;1.13;67.25;101723.34;5034486;28;20741;-77
2022/03/02 07:07:58;;;;;;;6.22;3.50;;;;;;;1.30;66.96;101723.94;5036085;28;20047;-78
2022/03/02 07:10:24;;;;;;;6.35;3.28;;;;;;;1.41;66.58;101718.00;5054650;28;20056;-77
2022/03/02 07:12:50;;;;;;;6.82;3.75;;;;;;;1.31;66.20;101712.09;5053574;28;20045;-77
2022/03/02 07:15:16;;;;;;;6.65;3.53;;;;;;;1.51;66.13;101714.97;5054547;28;20037;-76
2022/03/02 07:17:42;;;;;;;7.45;3.92;;;;;;;1.73;65.90;101718.47;5052893;28;20068;-76
2022/03/02 07:20:10;;;;;;;7.18;3.60;;;;;;;1.94;65.90;101707.59;5054539;28;20084;-77
2022/03/02 07:22:42;;;;;;;6.93;4.18;;;;;;;1.97;65.59;101704.50;5053644;28;20098;-77
2022/03/02 07:25:15;;;;;;;10.52;4.15;;;;;;;1.73;65.46;101707.63;5054557;28;20126;-76
2022/03/02 07:27:41;;;;;;;7.55;4.32;;;;;;;1.61;66.34;101699.25;5052801;28;20132;-78
2022/03/02 07:30:08;;;;;;;6.13;3.88;;;;;;;1.76;66.38;101701.84;5054422;28;20119;-78
2022/03/02 07:32:36;;;;;;;6.65;3.58;;;;;;;1.81;65.70;101700.22;5053184;28;20037;-77
2022/03/02 07:35:05;;;;;;;9.27;4.75;;;;;;;1.68;66.41;101689.28;5054062;28;20039;-77
2022/03/02 07:37:32;;;;;;;8.13;4.35;;;;;;;1.43;66.68;101694.31;5053923;28;20040;-77
2022/03/02 07:39:58;;;;;;;8.32;4.60;;;;;;;1.49;67.56;101695.38;5051613;28;20072;-77
2022/03/02 07:42:24;;;;;;;8.07;4.90;;;;;;;1.57;67.51;101689.84;5053329;28;20036;-77
2022/03/02 07:44:51;;;;;;;9.15;5.05;;;;;;;1.73;67.15;101686.00;5053621;28;20045;-76
2022/03/02 07:47:17;;;;;;;6.78;4.30;;;;;;;1.69;66.79;101682.84;5053432;28;20558;-78
2022/03/02 07:49:43;;;;;;;5.90;3.63;;;;;;;1.22;67.14;101685.38;5053666;28;20090;-77
2022/03/02 07:52:10;;;;;;;9.65;4.43;;;;;;;1.17;68.15;101683.25;5068933;28;20037;-76
2022/03/02 07:54:40;;;;;;;11.63;4.90;;;;;;;1.06;68.63;101678.38;5053858;28;20127;-78
2022/03/02 07:57:08;;;;;;;8.57;4.65;;;;;;;1.03;68.46;101678.72;5053655;28;20040;-77
2022/03/02 07:59:36;;;;;;;8.60;4.13;;;;;;;0.97;68.53;101672.25;5053351;28;20135;-77
2022/03/02 08:02:07;;;;;;;11.52;4.55;;;;;;;0.97;68.85;101674.09;5052513;28;20049;-77
2022/03/02 08:04:35;;;;;;;11.48;4.93;;;;;;;1.10;69.10;101672.38;5033449;28;20037;-77
2022/03/02 08:07:01;;;;;;;9.20;4.95;;;;;;;1.31;68.53;101676.09;5047036;28;20060;-77
2022/03/02 08:09:32;;;;;;;9.40;5.05;;;;;;;1.42;68.36;101673.72;5053023;28;20040;-76
2022/03/02 08:12:00;;;;;;;12.00;5.05;;;;;;;1.49;67.88;101668.34;5046890;28;20044;-76
2022/03/02 08:14:30;;;;;;;8.18;4.47;;;;;;;1.38;67.88;101661.59;5052271;28;20458;-78
2022/03/02 08:16:55;;;;;;;10.45;4.85;;;;;;;1.38;68.31;101653.47;5051135;28;20052;-78
2022/03/02 08:19:22;;;;;;;10.07;6.68;;;;;;;1.41;68.24;101653.09;5035860;28;20052;-78
2022/03/02 08:21:57;;;;;;;7.78;5.18;;;;;;;1.41;68.38;101645.00;5032925;28;20054;-78
2022/03/02 08:24:25;;;;;;;7.78;4.03;;;;;;;1.14;69.01;101657.44;5050535;28;20128;-77
2022/03/02 08:26:52;;;;;;;7.85;4.78;;;;;;;1.12;69.28;101647.84;5068849;28;20041;-78
2022/03/02 08:29:19;;;;;;;8.93;4.90;;;;;;;1.58;69.40;101647.41;5052282;28;20041;-78
2022/03/02 08:31:47;;;;;;;10.85;6.30;;;;;;;2.90;67.12;101642.56;5051263;28;20040;-77
2022/03/02 08:34:13;;;;;;;11.18;6.30;;;;;;;4.46;63.83;101636.25;5052816;28;20041;-78
2022/03/02 08:36:42;;;;;;;12.13;6.05;;;;;;;6.18;58.38;101645.78;5053018;28;20407;-77
2022/03/02 08:39:13;;;;;;;10.45;5.97;;;;;;;6.51;56.97;101633.63;5052739;28;20521;-77
2022/03/02 08:41:39;;;;;;;12.40;6.60;;;;;;;6.48;55.03;101634.09;5051208;28;20635;-77
2022/03/02 08:44:06;;;;;;;11.05;6.15;;;;;;;5.67;55.18;101635.19;5042926;28;20039;-76
2022/03/02 08:46:32;;;;;;;11.88;5.70;;;;;;;5.26;56.27;101639.31;5052597;28;20131;-77
2022/03/02 08:48:58;;;;;;;9.93;5.63;;;;;;;4.90;56.50;101640.00;5050579;28;20162;-78
2022/03/02 08:51:26;;;;;;;9.85;5.63;;;;;;;4.60;57.18;101636.19;5050544;28;20507;-77
2022/03/02 08:53:55;;;;;;;11.82;5.70;;;;;;;4.07;58.92;101633.72;5047376;28;20037;-77
2022/03/02 08:56:21;;;;;;;8.75;5.82;;;;;;;3.75;59.75;101636.28;5037660;28;20040;-77
2022/03/02 08:58:47;;;;;;;10.23;5.70;;;;;;;3.45;60.55;101635.91;5072384;28;20540;-79
2022/03/02 09:01:14;;;;;;;9.15;6.03;;;;;;;3.14;61.72;101633.00;5070232;28;20033;-79
2022/03/02 09:03:43;;;;;;;10.10;6.05;;;;;;;2.97;62.18;101633.41;5049127;28;20470;-82
2022/03/02 09:06:09;;;;;;;8.90;5.32;;;;;;;2.84;63.54;101629.84;5038052;28;20041;-81
2022/03/02 09:08:36;;;;;;;12.57;5.28;;;;;;;2.72;63.83;101635.00;5050765;28;20574;-80
2022/03/02 09:11:01;;;;;;;10.27;6.07;;;;;;;2.61;64.21;101641.88;5051083;28;20041;-79
2022/03/02 09:13:27;;;;;;;11.80;6.13;;;;;;;2.66;64.42;101641.25;5032971;28;20048;-81
2022/03/02 09:15:53;;;;;;;11.35;6.32;;;;;;;2.61;65.10;101631.03;5030221;28;20037;-83
2022/03/02 09:18:19;;;;;;;7.47;5.45;;;;;;;2.64;65.33;101627.91;5031334;28;20052;-80
2022/03/02 09:20:46;;;;;;;15.30;5.47;;;;;;;2.64;65.25;101621.66;5040601;28;20508;-80
2022/03/02 09:23:12;;;;;;;9.18;6.00;;;;;;;2.60;65.28;101620.38;5056692;28;20527;-80
2022/03/02 09:25:39;;;;;;;10.52;5.80;;;;;;;2.52;66.06;101613.28;5051283;28;20123;-79
2022/03/02 09:28:08;;;;;;;12.57;5.65;;;;;;;2.58;66.15;101620.59;5052179;28;20145;-80
2022/03/02 09:30:33;;;;;;;10.35;5.40;;;;;;;2.56;66.00;101617.25;5045768;28;20038;-80
2022/03/02 09:33:00;;;;;;;7.80;4.93;;;;;;;2.57;66.37;101616.22;5050433;28;20082;-79
2022/03/02 09:35:26;;;;;;;10.75;5.75;;;;;;;2.52;66.30;101607.88;5052012;28;20572;-79
2022/03/02 09:37:54;;;;;;;10.52;5.65;;;;;;;2.42;66.92;101616.38;5034437;28;20045;-81
2022/03/02 09:40:30;;;;;;;12.20;5.82;;;;;;;2.46;67.24;101611.41;5052085;28;20037;-75
2022/03/02 09:42:58;;;;;;;10.55;5.65;;;;;;;2.38;67.53;101611.56;5031235;28;20049;-79
2022/03/02 09:45:26;;;;;;;12.70;6.73;;;;;;;2.29;67.23;101602.81;5045507;28;20037;-77
2022/03/02 09:47:56;;;;;;;11.73;6.05;;;;;;;2.16;68.49;101607.34;5037692;28;20124;-77
2022/03/02 09:50:24;;;;;;;12.32;5.97;;;;;;;2.17;69.20;101609.84;5034207;28;20041;-77
2022/03/02 09:52:52;;;;;;;8.95;5.75;;;;;;;2.30;68.68;101600.94;5044090;28;20175;-79
2022/03/02 09:55:22;;;;;;;12.00;6.03;;;;;;;2.45;68.68;101595.38;5031991;28;20124;-78
2022/03/02 09:57:53;;;;;;;10.38;5.63;;;;;;;2.65;68.13;101583.53;5049605;28;20037;-78
2022/03/02 10:00:21;;;;;;;15.35;6.55;;;;;;;2.71;67.96;101579.97;5051159;28;20502;-78
2022/03/02 10:02:49;;;;;;;11.57;6.20;;;;;;;2.85;67.52;101580.00;5044668;28;20411;-78
2022/03/02 10:05:18;;;;;;;13.10;6.38;;;;;;;2.88;67.66;101582.28;5047177;28;20033;-78
2022/03/02 10:07:55;;;;;;;12.55;5.88;;;;;;;2.84;67.19;101581.03;5037344;28;20131;-77
2022/03/02 10:10:23;;;;;;;13.38;6.53;;;;;;;2.89;67.35;101567.69;5033174;28;20037;-77
2022/03/02 10:12:53;;;;;;;10.32;5.80;;;;;;;2.90;67.10;101570.19;5051631;28;20047;-78
2022/03/02 10:15:19;;;;;;;10.27;6.15;;;;;;;2.91;66.77;101563.72;5049934;28;20411;-77
2022/03/02 10:17:48;;;;;;;10.75;6.28;;;;;;;2.92;67.31;101565.41;5050179;28;20037;-77
2022/03/02 10:20:17;;;;;;;9.85;5.85;;;;;;;2.86;67.17;101560.00;5051402;28;20435;-77
2022/03/02 10:23:02;;;;;;;13.25;6.50;;;;;;;2.85;67.62;101551.03;5050019;28;20079;-77
2022/03/02 10:25:50;;;;;;;8.52;6.07;;;;;;;2.81;67.48;101548.94;5051136;28;20057;-77
2022/03/02 10:28:25;;;;;;;10.30;5.90;;;;;;;2.68;67.87;101542.47;5051131;28;20049;-80
2022/03/02 10:31:00;;;;;;;11.93;6.45;;;;;;;2.56;68.58;101533.25;5050951;28;20518;-79
2022/03/02 10:33:26;;;;;;;12.95;6.38;;;;;;;2.35;68.81;101528.03;5050847;28;20045;-77
2022/03/02 10:36:07;;;;;;;12.80;6.40;;;;;;;2.25;69.14;101527.56;5033476;28;20171;-77
2022/03/02 10:39:02;;;;;;;11.88;5.60;;;;;;;2.07;69.88;101522.72;5052560;28;20512;-76
2022/03/02 10:41:29;;;;;;;9.65;5.90;;;;;;;2.03;69.97;101521.47;5071152;28;20048;-77
2022/03/02 10:44:32;;;;;;;10.50;6.47;;;;;;;2.05;70.33;101525.66;5071213;28;20114;-77
2022/03/02 10:47:02;;;;;;;10.75;6.43;;;;;;;1.93;70.81;101518.34;5066754;28;20045;-78
2022/03/02 10:49:29;;;;;;;11.32;5.70;;;;;;;1.87;71.05;101514.56;5068835;28;20043;-76
2022/03/02 10:51:56;;;;;;;12.20;6.50;;;;;;;1.90;71.29;101508.72;5051468;28;20033;-78
2022/03/02 10:54:22;;;;;;;11.48;5.90;;;;;;;1.86;71.76;101504.75;5050814;28;20044;-79
2022/03/02 10:56:51;;;;;;;15.25;6.75;;;;;;;1.90;72.08;101499.78;5049719;28;20179;-77
2022/03/02 10:59:17;;;;;;;;;;;;;;;1.96;72.40;101498.97;5050058;28;20037;-78
2022/03/02 11:01:44;;;;;;;13.45;6.80;;;;;;;2.07;72.51;101503.78;5049718;28;19921;-77
2022/03/02 11:04:10;;;;;;;12.38;7.07;;;;;;;2.11;71.75;101489.66;5050078;28;20049;-78
2022/03/02 11:06:37;;;;;;;12.50;6.70;;;;;;;2.11;71.98;101492.38;5046638;28;20041;-78
2022/03/02 11:09:03;;;;;;;13.73;6.32;;;;;;;2.22;71.91;101484.66;5053949;28;20033;-76
2022/03/02 11:11:32;;;;;;;11.35;6.10;;;;;;;2.32;71.93;101474.28;5050586;28;20040;-78
2022/03/02 11:13:59;;;;;;;11.23;6.25;;;;;;;2.38;71.55;101478.84;5059429;28;20087;-77
2022/03/02 11:16:25;;;;;;;12.57;5.93;;;;;;;2.46;71.29;101470.53;5040376;28;20476;-77
2022/03/02 11:18:54;;;;;;;14.07;6.38;;;;;;;2.48;71.21;101468.47;5060172;28;20048;-80
2022/03/02 11:21:29;;;;;;;12.95;6.47;;;;;;;2.45;71.24;101457.22;5049488;28;20041;-78
2022/03/02 11:23:56;;;;;;;10.85;5.90;;;;;;;2.53;71.46;101459.69;5053601;28;20543;-79
2022/03/02 11:26:24;;;;;;;10.75;5.50;;;;;;;2.58;71.43;101451.78;5049453;28;20076;-77